Time;durP1;ratioP1;P1;durP2;ratioP2;P2;SDS_P1;SDS_P2;PMS_P1;PMS_P2;Temp;Humidity;BMP_temperature;BMP_pressure;BME280_temperature;BME280_humidity;BME280_pressure;Samples;Min_cycle;Max_cycle;Signal;HPM_P1;HPM_P2
2021/09/16 00:00:40;;;;;;;5.03;3.65;;;18.70;99.90;;;;;;4954553;28;20031;-75
2021/09/16 00:03:06;;;;;;;6.40;4.32;;;18.50;99.90;;;;;;4954872;28;20043;-74
2021/09/16 00:05:32;;;;;;;7.70;5.65;;;18.50;99.90;;;;;;4954094;28;20038;-74
2021/09/16 00:07:58;;;;;;;13.95;7.80;;;18.40;99.90;;;;;;4954250;28;20054;-75
2021/09/16 00:10:25;;;;;;;14.18;9.00;;;18.30;99.90;;;;;;4953652;28;20039;-75
2021/09/16 00:12:51;;;;;;;16.48;11.45;;;18.30;99.90;;;;;;4954544;28;20034;-74
2021/09/16 00:15:17;;;;;;;18.33;11.73;;;18.20;99.90;;;;;;4954263;28;20035;-73
2021/09/16 00:17:43;;;;;;;17.63;12.02;;;18.10;99.90;;;;;;4952555;28;20054;-75
2021/09/16 00:20:10;;;;;;;23.20;13.80;;;18.10;99.90;;;;;;4954040;28;20042;-74
2021/09/16 00:22:36;;;;;;;20.20;12.35;;;18.10;99.90;;;;;;4954358;28;20047;-75
2021/09/16 00:25:04;;;;;;;22.45;13.15;;;18.00;99.90;;;;;;4952765;28;20046;-75
2021/09/16 00:27:31;;;;;;;20.30;13.45;;;18.00;99.90;;;;;;4954032;28;20062;-75
2021/09/16 00:29:57;;;;;;;19.13;12.60;;;18.00;99.90;;;;;;4954448;28;20035;-75
2021/09/16 00:32:23;;;;;;;19.27;13.23;;;18.00;99.90;;;;;;4953874;28;20035;-74
2021/09/16 00:34:49;;;;;;;18.20;12.38;;;18.00;99.90;;;;;;4954368;28;20054;-75
2021/09/16 00:37:16;;;;;;;16.92;12.32;;;18.10;99.90;;;;;;4953960;28;20039;-75
2021/09/16 00:39:43;;;;;;;17.10;12.75;;;18.10;99.90;;;;;;4954059;28;20038;-75
2021/09/16 00:42:14;;;;;;;15.38;11.02;;;18.00;99.90;;;;;;4952597;28;20051;-76
2021/09/16 00:44:40;;;;;;;15.10;10.88;;;18.00;99.90;;;;;;4953612;28;20035;-75
2021/09/16 00:47:06;;;;;;;19.23;12.02;;;17.90;99.90;;;;;;4953812;28;20477;-75
2021/09/16 00:49:33;;;;;;;14.27;9.60;;;17.90;99.90;;;;;;4953665;28;20047;-76
2021/09/16 00:52:00;;;;;;;19.65;11.43;;;17.90;99.90;;;;;;4954328;28;20503;-75
2021/09/16 00:54:31;;;;;;;17.85;11.50;;;17.80;99.90;;;;;;4953494;28;20059;-75
2021/09/16 00:56:58;;;;;;;15.88;11.68;;;17.80;99.90;;;;;;4954293;28;20046;-75
2021/09/16 00:59:25;;;;;;;15.23;11.60;;;17.80;99.90;;;;;;4953616;28;20477;-74
2021/09/16 01:01:51;;;;;;;17.90;11.52;;;17.70;99.90;;;;;;4951760;28;20039;-75
2021/09/16 01:04:17;;;;;;;18.75;12.55;;;17.70;99.90;;;;;;4953932;28;20035;-74
2021/09/16 01:06:44;;;;;;;17.25;12.68;;;17.70;99.90;;;;;;4954340;28;20051;-74
2021/09/16 01:09:11;;;;;;;21.05;12.57;;;17.70;99.90;;;;;;4953694;28;20044;-75
2021/09/16 01:11:37;;;;;;;16.40;11.80;;;17.60;99.90;;;;;;4953881;28;20500;-74
2021/09/16 01:14:03;;;;;;;19.95;13.77;;;17.60;99.90;;;;;;4954067;28;20042;-75
2021/09/16 01:16:30;;;;;;;20.33;12.82;;;17.60;99.90;;;;;;4953215;28;20054;-73
2021/09/16 01:18:56;;;;;;;16.02;12.65;;;17.60;99.90;;;;;;4953569;28;20043;-73
2021/09/16 01:21:22;;;;;;;17.23;12.68;;;17.60;99.90;;;;;;4953021;28;20035;-73
2021/09/16 01:23:50;;;;;;;19.88;12.75;;;17.50;99.90;;;;;;4953739;28;20577;-74
2021/09/16 01:26:16;;;;;;;19.23;13.32;;;17.40;99.90;;;;;;4960900;28;20058;-74
2021/09/16 01:28:42;;;;;;;19.83;12.43;;;17.40;99.90;;;;;;4959702;28;20479;-74
2021/09/16 01:31:09;;;;;;;19.50;12.43;;;17.40;99.90;;;;;;4940890;28;20137;-74
2021/09/16 01:33:36;;;;;;;23.45;13.85;;;17.40;99.90;;;;;;4957215;28;20031;-74
2021/09/16 01:36:09;;;;;;;22.23;14.25;;;17.40;99.90;;;;;;4971539;28;20061;-74
2021/09/16 01:38:35;;;;;;;22.20;15.80;;;17.40;99.90;;;;;;4963837;28;20042;-74
2021/09/16 01:41:01;;;;;;;24.65;16.15;;;17.40;99.90;;;;;;4966702;28;20027;-74
2021/09/16 01:43:27;;;;;;;25.02;16.65;;;17.40;99.90;;;;;;4970964;28;20035;-75
2021/09/16 01:45:54;;;;;;;26.75;16.83;;;17.40;99.90;;;;;;4965240;28;20027;-75
2021/09/16 01:48:21;;;;;;;27.98;17.33;;;17.30;99.90;;;;;;4957456;29;20043;-74
2021/09/16 01:50:48;;;;;;;26.20;17.55;;;17.30;99.90;;;;;;4957552;28;20042;-75
2021/09/16 01:53:14;;;;;;;25.65;18.30;;;17.20;99.90;;;;;;4957353;28;20039;-75
2021/09/16 01:55:41;;;;;;;29.98;19.38;;;17.20;99.90;;;;;;4957066;28;20063;-74
2021/09/16 01:58:07;;;;;;;29.52;19.00;;;17.20;99.90;;;;;;4957506;28;20031;-75
2021/09/16 02:00:33;;;;;;;29.38;18.30;;;17.10;99.90;;;;;;4955756;28;20048;-75
2021/09/16 02:02:59;;;;;;;29.10;17.98;;;17.20;99.90;;;;;;4957231;28;20046;-74
2021/09/16 02:05:26;;;;;;;30.52;19.17;;;17.10;99.90;;;;;;4956897;28;20031;-73
2021/09/16 02:07:52;;;;;;;33.67;19.10;;;17.10;99.90;;;;;;4969785;28;20050;-74
2021/09/16 02:10:18;;;;;;;31.15;19.40;;;17.10;99.90;;;;;;4959183;28;20031;-75
2021/09/16 02:12:44;;;;;;;29.40;19.05;;;17.10;99.90;;;;;;4960685;28;20039;-74
2021/09/16 02:15:10;;;;;;;33.63;21.55;;;17.10;99.90;;;;;;4956682;28;20487;-74
2021/09/16 02:17:37;;;;;;;30.83;19.73;;;17.10;99.90;;;;;;4956137;28;20047;-74
2021/09/16 02:20:03;;;;;;;36.10;21.05;;;17.00;99.90;;;;;;4956612;28;20035;-74
2021/09/16 02:22:29;;;;;;;46.15;22.35;;;17.00;99.90;;;;;;4956490;28;20047;-73
2021/09/16 02:24:56;;;;;;;35.40;21.10;;;17.00;99.90;;;;;;4956394;28;20468;-75
2021/09/16 02:27:22;;;;;;;38.45;22.10;;;16.90;99.90;;;;;;4956092;28;20043;-74
2021/09/16 02:29:48;;;;;;;37.83;21.27;;;17.00;99.90;;;;;;4956197;28;20151;-74
2021/09/16 02:32:15;;;;;;;35.17;21.52;;;16.90;99.90;;;;;;4956552;28;20035;-72
2021/09/16 02:34:41;;;;;;;43.10;23.17;;;16.90;99.90;;;;;;4956149;28;20032;-72
2021/09/16 02:37:07;;;;;;;43.60;23.55;;;16.90;99.90;;;;;;4956122;28;20050;-72
2021/09/16 02:39:33;;;;;;;46.28;25.30;;;16.90;99.90;;;;;;4955428;28;20039;-72
2021/09/16 02:41:59;;;;;;;50.22;24.17;;;16.80;99.90;;;;;;4956492;28;20417;-74
2021/09/16 02:44:26;;;;;;;48.70;25.92;;;16.80;99.90;;;;;;4955938;28;20043;-73
2021/09/16 02:46:52;;;;;;;46.78;24.27;;;16.70;99.90;;;;;;4956001;28;20043;-73
2021/09/16 02:49:18;;;;;;;51.35;25.40;;;16.70;99.90;;;;;;4956519;28;20035;-73
2021/09/16 02:51:44;;;;;;;55.50;27.50;;;16.70;99.90;;;;;;4956256;28;20031;-73
2021/09/16 02:54:10;;;;;;;49.55;25.60;;;16.70;99.90;;;;;;4958947;28;20048;-74
2021/09/16 02:56:37;;;;;;;52.35;27.08;;;16.70;99.90;;;;;;4959237;28;20038;-73
2021/09/16 02:59:03;;;;;;;48.83;26.73;;;16.60;99.90;;;;;;4957122;28;20389;-73
2021/09/16 03:01:29;;;;;;;53.72;27.38;;;16.60;99.90;;;;;;4954691;28;20046;-72
2021/09/16 03:03:55;;;;;;;54.17;27.63;;;16.60;99.90;;;;;;4956133;28;20104;-73
2021/09/16 03:06:21;;;;;;;60.30;28.45;;;16.60;99.90;;;;;;4955423;28;20492;-73
2021/09/16 03:08:48;;;;;;;58.35;28.33;;;16.60;99.90;;;;;;4955640;28;20050;-73
2021/09/16 03:11:15;;;;;;;63.53;30.02;;;16.60;99.90;;;;;;4955568;28;20480;-73
2021/09/16 03:13:42;;;;;;;59.58;28.27;;;16.60;99.90;;;;;;4938224;28;20039;-73
2021/09/16 03:16:08;;;;;;;64.05;28.95;;;16.60;99.90;;;;;;4955530;28;20035;-73
2021/09/16 03:18:34;;;;;;;61.03;29.65;;;16.60;99.90;;;;;;4954822;28;20072;-72
2021/09/16 03:21:00;;;;;;;59.42;29.77;;;16.60;99.90;;;;;;4955174;28;20039;-72
2021/09/16 03:23:26;;;;;;;72.18;31.58;;;16.60;99.90;;;;;;4954552;28;20493;-72
2021/09/16 03:25:52;;;;;;;66.03;31.63;;;16.60;99.90;;;;;;4955394;28;20031;-72
2021/09/16 03:28:19;;;;;;;67.60;29.55;;;16.60;99.90;;;;;;4954973;28;20400;-73
2021/09/16 03:30:45;;;;;;;70.40;31.77;;;16.60;99.90;;;;;;4954829;28;20042;-73
2021/09/16 03:33:11;;;;;;;82.93;32.17;;;16.60;99.90;;;;;;4954781;28;20043;-73
2021/09/16 03:35:37;;;;;;;73.75;31.95;;;16.60;99.90;;;;;;4954487;28;20027;-73
2021/09/16 03:38:03;;;;;;;73.75;31.48;;;16.50;99.90;;;;;;4955170;28;20469;-73
2021/09/16 03:40:30;;;;;;;70.95;31.00;;;16.50;99.90;;;;;;4954692;28;20117;-72
2021/09/16 03:42:56;;;;;;;68.88;31.15;;;16.50;99.90;;;;;;4954908;28;20043;-73
2021/09/16 03:45:22;;;;;;;74.93;29.58;;;16.50;99.90;;;;;;4955626;28;20384;-72
2021/09/16 03:47:48;;;;;;;69.60;29.60;;;16.50;99.90;;;;;;4954791;28;20039;-73
2021/09/16 03:50:14;;;;;;;67.00;29.90;;;16.40;99.90;;;;;;4954071;28;20043;-74
2021/09/16 03:52:41;;;;;;;71.30;31.70;;;16.40;99.90;;;;;;4954613;28;20042;-73
2021/09/16 03:55:08;;;;;;;66.93;29.40;;;16.40;99.90;;;;;;4954605;28;20055;-73
2021/09/16 03:57:34;;;;;;;71.80;30.60;;;16.40;99.90;;;;;;4954312;28;20039;-74
2021/09/16 04:00:01;;;;;;;64.80;30.70;;;16.40;99.90;;;;;;4964287;28;20050;-72
2021/09/16 04:02:27;;;;;;;70.43;29.95;;;16.40;99.90;;;;;;4965784;28;20024;-72
2021/09/16 04:04:53;;;;;;;65.25;30.08;;;16.40;99.90;;;;;;4964541;28;20031;-73
2021/09/16 04:07:19;;;;;;;69.90;29.02;;;16.40;99.90;;;;;;4962389;28;20046;-74
2021/09/16 04:09:45;;;;;;;71.53;30.48;;;16.40;99.90;;;;;;4954362;28;20488;-72
2021/09/16 04:12:11;;;;;;;66.35;29.40;;;16.40;99.90;;;;;;4954712;28;20465;-73
2021/09/16 04:14:38;;;;;;;71.65;31.48;;;16.40;99.90;;;;;;4953756;28;20054;-74
2021/09/16 04:17:04;;;;;;;68.47;29.92;;;16.30;99.90;;;;;;4953119;28;20055;-74
2021/09/16 04:19:30;;;;;;;68.47;29.58;;;16.40;99.90;;;;;;4953991;28;20043;-74
2021/09/16 04:21:56;;;;;;;65.28;28.83;;;16.30;99.90;;;;;;4942394;28;20040;-73
2021/09/16 04:24:22;;;;;;;69.25;28.80;;;16.30;99.90;;;;;;4963292;28;20026;-72
2021/09/16 04:26:49;;;;;;;64.60;27.77;;;16.30;99.90;;;;;;4972113;28;20053;-73
2021/09/16 04:29:15;;;;;;;57.67;28.42;;;16.20;99.90;;;;;;4954902;28;20038;-74
2021/09/16 04:31:41;;;;;;;53.70;23.98;;;16.20;99.90;;;;;;4954671;28;20051;-75
2021/09/16 04:34:07;;;;;;;51.55;24.15;;;16.20;99.90;;;;;;4954939;28;20050;-74
2021/09/16 04:36:34;;;;;;;46.40;22.25;;;16.10;99.90;;;;;;4957345;28;20050;-74
2021/09/16 04:39:01;;;;;;;45.10;20.42;;;16.00;99.90;;;;;;4958553;28;20043;-76
2021/09/16 04:41:28;;;;;;;37.55;19.20;;;16.00;99.90;;;;;;4955273;28;20050;-75
2021/09/16 04:43:54;;;;;;;35.35;18.73;;;16.00;99.90;;;;;;4969739;28;20029;-75
2021/09/16 04:46:20;;;;;;;38.83;18.85;;;15.90;99.90;;;;;;4961077;28;20039;-74
2021/09/16 04:48:46;;;;;;;37.85;19.77;;;15.90;99.90;;;;;;4954575;28;20031;-74
2021/09/16 04:51:12;;;;;;;38.67;19.88;;;15.90;99.90;;;;;;4955431;28;20042;-75
2021/09/16 04:53:39;;;;;;;37.08;17.65;;;15.90;99.90;;;;;;4953692;28;20042;-75
2021/09/16 04:56:05;;;;;;;36.78;18.02;;;15.80;99.90;;;;;;4955690;28;20035;-74
2021/09/16 04:58:31;;;;;;;34.90;16.80;;;15.80;99.90;;;;;;4953689;28;20427;-75
2021/09/16 05:00:57;;;;;;;39.63;17.77;;;15.70;99.90;;;;;;4954716;29;20035;-75
2021/09/16 05:03:23;;;;;;;34.47;17.70;;;15.70;99.90;;;;;;4939347;28;20473;-74
2021/09/16 05:05:49;;;;;;;30.05;16.00;;;15.70;99.90;;;;;;4959235;28;20050;-75
2021/09/16 05:08:16;;;;;;;28.88;16.98;;;15.70;99.90;;;;;;4952917;28;20047;-75
2021/09/16 05:10:43;;;;;;;33.88;16.77;;;15.70;99.90;;;;;;4966062;28;20039;-75
2021/09/16 05:13:09;;;;;;;34.13;18.73;;;15.70;99.90;;;;;;4958971;28;20054;-75
2021/09/16 05:15:35;;;;;;;34.20;18.80;;;15.70;99.90;;;;;;4973092;28;20035;-75
2021/09/16 05:18:02;;;;;;;30.45;16.75;;;15.70;99.90;;;;;;4958795;28;20043;-75
2021/09/16 05:20:28;;;;;;;30.60;16.42;;;15.70;99.90;;;;;;4957437;28;20046;-74
2021/09/16 05:22:55;;;;;;;35.85;17.98;;;15.60;99.90;;;;;;4957806;28;20050;-75
2021/09/16 05:25:21;;;;;;;30.58;16.02;;;15.70;99.90;;;;;;4957914;28;20035;-75
2021/09/16 05:27:48;;;;;;;30.08;17.30;;;15.60;99.90;;;;;;4957636;28;20042;-75
2021/09/16 05:30:15;;;;;;;29.67;15.00;;;15.60;99.90;;;;;;4957945;28;20032;-75
2021/09/16 05:32:41;;;;;;;30.98;17.52;;;15.60;99.90;;;;;;4957460;28;20031;-75
2021/09/16 05:35:08;;;;;;;27.80;16.00;;;15.60;99.90;;;;;;4957454;28;20023;-75
2021/09/16 05:37:34;;;;;;;28.88;15.98;;;15.60;99.90;;;;;;4958089;28;20046;-76
2021/09/16 05:40:00;;;;;;;23.85;14.98;;;15.60;99.90;;;;;;4958731;28;20035;-75
2021/09/16 05:42:27;;;;;;;29.67;15.48;;;15.50;99.90;;;;;;4958344;28;20394;-75
2021/09/16 05:44:54;;;;;;;30.10;15.73;;;15.60;99.90;;;;;;4958388;28;20035;-75
2021/09/16 05:47:20;;;;;;;29.33;15.88;;;15.60;99.90;;;;;;4970130;28;20027;-75
2021/09/16 05:49:46;;;;;;;29.95;14.95;;;15.60;99.90;;;;;;4958041;28;20038;-74
2021/09/16 05:52:13;;;;;;;31.98;16.20;;;15.60;99.90;;;;;;4957403;28;20031;-75
2021/09/16 05:54:39;;;;;;;30.10;15.68;;;15.70;99.90;;;;;;4957169;28;20066;-75
2021/09/16 05:57:05;;;;;;;27.60;14.70;;;15.70;99.90;;;;;;4960760;28;20043;-75
2021/09/16 05:59:32;;;;;;;26.67;15.13;;;15.60;99.90;;;;;;4957410;28;20039;-74
2021/09/16 06:01:58;;;;;;;27.73;15.00;;;15.60;99.90;;;;;;4958839;29;20381;-75
2021/09/16 06:04:24;;;;;;;29.63;15.30;;;15.60;99.90;;;;;;4968288;28;20039;-75
2021/09/16 06:06:51;;;;;;;28.92;15.63;;;15.60;99.90;;;;;;4972799;28;20027;-75
2021/09/16 06:09:17;;;;;;;27.90;15.88;;;15.70;99.90;;;;;;4968511;28;20039;-75
2021/09/16 06:11:43;;;;;;;30.55;16.27;;;15.60;99.90;;;;;;4978968;28;20041;-75
2021/09/16 06:14:09;;;;;;;26.05;15.00;;;15.60;99.90;;;;;;4981086;28;20038;-77
2021/09/16 06:16:35;;;;;;;28.58;15.70;;;15.70;99.90;;;;;;4969523;28;20058;-76
2021/09/16 06:19:02;;;;;;;29.58;15.35;;;15.60;99.90;;;;;;4961280;28;20470;-76
2021/09/16 06:21:28;;;;;;;31.67;15.93;;;15.70;99.90;;;;;;4979576;28;20039;-76
2021/09/16 06:23:54;;;;;;;34.40;16.70;;;15.70;99.90;;;;;;4959759;28;20105;-76
2021/09/16 06:26:21;;;;;;;31.30;17.73;;;15.70;99.90;;;;;;4959368;28;20038;-76
2021/09/16 06:28:47;;;;;;;33.58;17.73;;;15.70;99.90;;;;;;4966888;28;20034;-76
2021/09/16 06:31:14;;;;;;;32.90;18.83;;;15.70;99.90;;;;;;4965539;28;20378;-75
2021/09/16 06:33:40;;;;;;;31.88;17.17;;;15.70;99.90;;;;;;4958230;28;20051;-76
2021/09/16 06:36:06;;;;;;;31.17;16.58;;;15.70;99.90;;;;;;4958465;28;20055;-76
2021/09/16 06:38:33;;;;;;;33.85;18.88;;;15.70;99.90;;;;;;4957719;28;20054;-77
2021/09/16 06:40:59;;;;;;;34.08;15.65;;;15.80;99.90;;;;;;4958553;28;20034;-77
2021/09/16 06:43:25;;;;;;;31.85;16.80;;;15.80;99.90;;;;;;4958157;28;20498;-75
2021/09/16 06:45:51;;;;;;;34.85;17.80;;;15.80;99.90;;;;;;4957612;28;20405;-75
2021/09/16 06:48:18;;;;;;;32.70;16.95;;;15.90;99.90;;;;;;4958100;28;20035;-75
2021/09/16 06:50:44;;;;;;;32.13;17.02;;;15.90;99.90;;;;;;4959486;28;20389;-76
2021/09/16 06:53:10;;;;;;;29.95;16.70;;;16.00;99.90;;;;;;4959597;28;20050;-77
2021/09/16 06:55:36;;;;;;;35.75;18.13;;;16.00;99.90;;;;;;4961101;28;20050;-77
2021/09/16 06:58:02;;;;;;;33.60;17.55;;;16.00;99.90;;;;;;4961034;29;20042;-76
2021/09/16 07:00:29;;;;;;;31.08;17.50;;;16.00;99.90;;;;;;4967880;28;20031;-77
2021/09/16 07:02:55;;;;;;;31.48;17.42;;;16.10;99.90;;;;;;4960196;28;20047;-78
2021/09/16 07:05:21;;;;;;;29.85;16.95;;;16.10;99.90;;;;;;4958208;28;20394;-77
2021/09/16 07:07:47;;;;;;;29.80;17.40;;;16.10;99.90;;;;;;4957634;29;20044;-77
2021/09/16 07:10:14;;;;;;;31.88;17.73;;;16.10;99.90;;;;;;4958758;28;20042;-77
2021/09/16 07:12:40;;;;;;;35.45;17.98;;;16.10;99.90;;;;;;4957341;28;20461;-77
2021/09/16 07:15:07;;;;;;;31.58;17.50;;;16.10;99.90;;;;;;4955975;28;20050;-77
2021/09/16 07:17:33;;;;;;;32.97;18.40;;;16.10;99.90;;;;;;4957691;28;20034;-77
2021/09/16 07:19:59;;;;;;;34.30;16.88;;;16.20;99.90;;;;;;4939048;28;20035;-77
2021/09/16 07:22:26;;;;;;;32.80;19.15;;;16.20;99.90;;;;;;4957147;28;20043;-76
2021/09/16 07:24:52;;;;;;;28.85;16.90;;;16.20;99.90;;;;;;4955374;28;20454;-77
2021/09/16 07:27:18;;;;;;;32.38;17.38;;;16.30;99.90;;;;;;4955260;28;20034;-77
2021/09/16 07:29:44;;;;;;;29.25;17.15;;;16.30;99.90;;;;;;4956509;28;20042;-78
2021/09/16 07:32:11;;;;;;;28.23;16.27;;;16.30;99.90;;;;;;4956044;28;20107;-76
2021/09/16 07:34:37;;;;;;;27.10;16.95;;;16.30;99.90;;;;;;4957381;28;20035;-75
2021/09/16 07:37:05;;;;;;;25.75;15.07;;;16.30;99.90;;;;;;4957878;28;20035;-77
2021/09/16 07:39:31;;;;;;;28.45;14.63;;;16.40;99.90;;;;;;4956215;28;20039;-77
2021/09/16 07:41:58;;;;;;;26.58;15.63;;;16.50;99.90;;;;;;4956279;28;20043;-77
2021/09/16 07:44:24;;;;;;;24.48;14.77;;;16.50;99.90;;;;;;4957222;28;20389;-76
2021/09/16 07:46:51;;;;;;;22.05;14.07;;;16.60;99.90;;;;;;4957978;28;20477;-77
2021/09/16 07:49:17;;;;;;;22.15;13.25;;;16.50;99.90;;;;;;4957768;28;20039;-76
2021/09/16 07:51:44;;;;;;;18.30;13.02;;;16.60;99.90;;;;;;4956882;28;20050;-76
2021/09/16 07:54:11;;;;;;;18.70;12.10;;;16.80;99.90;;;;;;4962614;28;20050;-77
2021/09/16 07:56:39;;;;;;;18.40;12.18;;;16.70;99.90;;;;;;4945124;29;20051;-77
2021/09/16 07:59:06;;;;;;;16.77;10.23;;;16.80;99.90;;;;;;4935868;29;20046;-77
2021/09/16 08:01:34;;;;;;;19.73;13.82;;;16.80;99.90;;;;;;4935622;29;20055;-74
2021/09/16 08:04:00;;;;;;;14.30;9.60;;;16.70;99.90;;;;;;4935200;29;20044;-78
2021/09/16 08:06:26;;;;;;;15.23;9.80;;;16.70;99.90;;;;;;4949458;29;20055;-75
2021/09/16 08:08:52;;;;;;;14.05;10.50;;;16.60;99.90;;;;;;4934941;29;20035;-75
2021/09/16 08:11:19;;;;;;;12.85;9.48;;;16.70;99.90;;;;;;4934589;29;20048;-76
2021/09/16 08:13:45;;;;;;;18.73;9.95;;;16.80;99.90;;;;;;4933540;29;20032;-77
2021/09/16 08:16:11;;;;;;;13.25;9.52;;;16.70;99.90;;;;;;4934393;29;20040;-77
2021/09/16 08:18:38;;;;;;;16.13;11.00;;;16.70;99.90;;;;;;4934738;29;20031;-75
2021/09/16 08:21:04;;;;;;;14.43;9.63;;;16.60;99.90;;;;;;4934730;29;20032;-76
2021/09/16 08:23:31;;;;;;;14.88;9.07;;;16.80;99.90;;;;;;4934724;29;20039;-75
2021/09/16 08:25:57;;;;;;;16.13;10.55;;;16.80;99.90;;;;;;4933277;29;20046;-74
2021/09/16 08:28:23;;;;;;;12.38;9.38;;;16.70;99.90;;;;;;4950374;29;20054;-75
2021/09/16 08:30:49;;;;;;;12.30;8.30;;;16.80;99.90;;;;;;4954757;28;20039;-76
2021/09/16 08:33:16;;;;;;;10.93;8.30;;;16.90;99.90;;;;;;4954400;28;20034;-76
2021/09/16 08:35:42;;;;;;;10.80;7.70;;;16.80;99.90;;;;;;4937328;28;20039;-76
2021/09/16 08:38:09;;;;;;;16.52;9.45;;;16.90;99.90;;;;;;4936343;28;20473;-76
2021/09/16 08:40:35;;;;;;;14.40;8.57;;;17.00;99.90;;;;;;4954439;28;20042;-77
2021/09/16 08:43:02;;;;;;;12.15;8.05;;;17.20;99.90;;;;;;4954715;28;20034;-76
2021/09/16 08:45:28;;;;;;;11.43;7.60;;;17.20;99.90;;;;;;4955610;28;20031;-78
2021/09/16 08:47:55;;;;;;;11.15;7.70;;;17.20;99.90;;;;;;4958493;28;20027;-79
2021/09/16 08:50:26;;;;;;;10.07;6.75;;;17.00;99.90;;;;;;4960626;28;20107;-78
2021/09/16 08:52:52;;;;;;;12.55;7.47;;;17.10;99.90;;;;;;4971802;28;20046;-79
2021/09/16 08:55:20;;;;;;;9.90;7.30;;;17.10;99.90;;;;;;4961902;28;20055;-77
2021/09/16 08:57:49;;;;;;;8.95;6.85;;;17.10;99.90;;;;;;4954607;29;20039;-77
2021/09/16 09:00:18;;;;;;;9.67;7.23;;;17.20;99.90;;;;;;4936868;28;20042;-79
2021/09/16 09:02:47;;;;;;;8.57;6.43;;;17.20;99.90;;;;;;4953913;28;20625;-79
2021/09/16 09:05:14;;;;;;;10.13;7.00;;;17.00;99.90;;;;;;4954435;28;20035;-78
2021/09/16 09:07:44;;;;;;;10.75;7.00;;;17.10;99.90;;;;;;4953538;28;20046;-78
2021/09/16 09:10:31;;;;;;;8.43;6.25;;;17.30;99.90;;;;;;4954035;28;20516;-79
2021/09/16 09:12:58;;;;;;;9.43;5.97;;;17.20;99.90;;;;;;4954599;28;20031;-78
2021/09/16 09:15:26;;;;;;;10.13;6.63;;;17.40;99.90;;;;;;4953924;28;20035;-78
2021/09/16 09:18:07;;;;;;;9.13;6.55;;;17.40;99.90;;;;;;4953602;28;20374;-78
2021/09/16 09:20:51;;;;;;;7.72;6.00;;;17.20;99.90;;;;;;4954337;28;20035;-77
2021/09/16 09:23:26;;;;;;;8.52;6.45;;;17.10;99.90;;;;;;4954303;28;20074;-79
2021/09/16 09:25:52;;;;;;;8.82;6.15;;;17.20;99.90;;;;;;4972581;28;20043;-77
2021/09/16 09:28:33;;;;;;;10.52;7.82;;;17.30;99.90;;;;;;4958013;28;20031;-77
2021/09/16 09:31:13;;;;;;;9.63;6.15;;;17.40;99.90;;;;;;4954019;28;20039;-76
2021/09/16 09:33:39;;;;;;;7.40;5.50;;;17.60;99.90;;;;;;4969536;28;20511;-76
2021/09/16 09:36:18;;;;;;;8.25;5.82;;;17.40;99.90;;;;;;4957431;29;20043;-76
2021/09/16 09:39:01;;;;;;;8.25;6.35;;;17.50;99.90;;;;;;4956827;28;20035;-76
2021/09/16 09:41:36;;;;;;;7.40;5.25;;;17.90;99.90;;;;;;4962794;28;20035;-76
2021/09/16 09:44:09;;;;;;;8.93;5.20;;;18.10;99.90;;;;;;4962198;29;20047;-77
2021/09/16 09:46:48;;;;;;;8.25;6.13;;;18.50;99.60;;;;;;4958750;28;20031;-78
2021/09/16 09:49:18;;;;;;;9.95;5.68;;;18.70;98.10;;;;;;4958151;28;20062;-76
2021/09/16 09:51:44;;;;;;;7.47;5.25;;;18.30;96.30;;;;;;4959329;28;20035;-77
2021/09/16 09:54:17;;;;;;;8.05;5.18;;;18.20;98.30;;;;;;4958323;28;20058;-77
2021/09/16 09:57:01;;;;;;;7.55;4.88;;;18.40;97.30;;;;;;4958563;28;20039;-76
2021/09/16 09:59:53;;;;;;;6.30;3.38;;;18.70;95.70;;;;;;4958363;28;20043;-76
2021/09/16 10:02:21;;;;;;;5.47;3.55;;;18.90;91.80;;;;;;4957630;28;20409;-77
2021/09/16 10:04:48;;;;;;;7.00;3.92;;;19.30;90.50;;;;;;4957403;28;20401;-74
2021/09/16 10:07:43;;;;;;;5.05;3.33;;;19.30;90.80;;;;;;4957201;28;20038;-77
2021/09/16 10:10:12;;;;;;;4.75;3.50;;;18.90;90.90;;;;;;4949169;28;20047;-77
2021/09/16 10:12:39;;;;;;;8.48;3.17;;;18.70;91.90;;;;;;4956570;28;20405;-77
2021/09/16 10:15:08;;;;;;;5.32;3.50;;;18.50;91.30;;;;;;4957576;28;20039;-77
2021/09/16 10:17:35;;;;;;;5.90;3.42;;;18.20;91.10;;;;;;4939867;28;20414;-76
2021/09/16 10:20:02;;;;;;;3.67;2.97;;;18.10;91.40;;;;;;4955913;28;20492;-77
2021/09/16 10:22:28;;;;;;;7.88;3.38;;;18.30;92.70;;;;;;4957315;28;20023;-78
2021/09/16 10:24:55;;;;;;;4.75;2.88;;;18.30;91.70;;;;;;4956928;28;20027;-78
2021/09/16 10:27:32;;;;;;;5.53;3.85;;;18.00;91.40;;;;;;4957639;28;20121;-79
2021/09/16 10:29:59;;;;;;;4.78;3.00;;;18.00;91.60;;;;;;4957192;28;20055;-78
2021/09/16 10:32:29;;;;;;;3.95;3.50;;;18.10;91.20;;;;;;4964360;28;20043;-78
2021/09/16 10:35:01;;;;;;;4.75;3.15;;;18.50;90.10;;;;;;4972935;29;20035;-79
2021/09/16 10:37:37;;;;;;;4.72;3.22;;;19.10;90.70;;;;;;4975191;28;20037;-76
2021/09/16 10:40:29;;;;;;;4.82;3.38;;;19.60;87.70;;;;;;4985464;28;20034;-80
2021/09/16 10:43:01;;;;;;;5.22;2.85;;;19.40;85.60;;;;;;4978143;28;20042;-78
2021/09/16 10:45:37;;;;;;;3.88;2.85;;;19.10;87.30;;;;;;4961983;28;20043;-79
2021/09/16 10:48:12;;;;;;;3.65;2.92;;;19.00;84.70;;;;;;4958420;28;20031;-79
2021/09/16 10:50:46;;;;;;;4.60;2.97;;;19.00;85.30;;;;;;4957389;28;20353;-79
2021/09/16 10:53:35;;;;;;;6.25;2.88;;;19.30;84.80;;;;;;4955724;28;20050;-79
2021/09/16 10:56:25;;;;;;;4.68;3.53;;;19.60;83.40;;;;;;4957520;28;20054;-79
2021/09/16 10:58:53;;;;;;;3.97;3.13;;;19.40;83.10;;;;;;4940147;28;20043;-80
2021/09/16 11:01:50;;;;;;;5.60;2.75;;;19.30;84.80;;;;;;4956279;28;20110;-79
2021/09/16 11:04:18;;;;;;;4.78;2.80;;;19.00;83.10;;;;;;4957033;28;20035;-81
2021/09/16 11:06:45;;;;;;;2.95;2.30;;;18.90;84.80;;;;;;4957063;28;20035;-81
2021/09/16 11:09:12;;;;;;;3.78;2.13;;;18.80;84.50;;;;;;4957405;28;20048;-82
2021/09/16 11:11:48;;;;;;;3.90;2.90;;;19.00;85.00;;;;;;4956909;28;20122;-81
2021/09/16 11:14:55;;;;;;;3.42;2.45;;;19.00;83.50;;;;;;4956745;28;20055;-80
2021/09/16 11:17:26;;;;;;;4.85;2.88;;;18.90;83.10;;;;;;4936676;28;20058;-81
2021/09/16 11:19:53;;;;;;;3.13;2.47;;;19.00;81.70;;;;;;4957176;28;20485;-80
2021/09/16 11:22:24;;;;;;;4.80;3.20;;;19.10;82.70;;;;;;4956604;28;20046;-81
2021/09/16 11:24:55;;;;;;;3.65;2.30;;;19.60;80.70;;;;;;4954414;28;20043;-80
2021/09/16 11:27:25;;;;;;;3.05;2.03;;;19.60;77.60;;;;;;4955488;28;20462;-81
2021/09/16 11:29:51;;;;;;;3.90;2.83;;;19.30;78.70;;;;;;4953799;28;20400;-79
2021/09/16 11:32:18;;;;;;;3.78;2.45;;;19.30;77.60;;;;;;4962251;28;20034;-80
2021/09/16 11:34:57;;;;;;;2.88;2.25;;;19.10;78.90;;;;;;4957397;28;20046;-77
2021/09/16 11:37:31;;;;;;;4.32;2.50;;;19.10;78.00;;;;;;4955987;28;20039;-79
2021/09/16 11:40:17;;;;;;;3.00;2.10;;;19.10;78.60;;;;;;4955706;28;20043;-79
2021/09/16 11:42:49;;;;;;;3.67;1.90;;;19.10;80.20;;;;;;4955883;28;20417;-80
2021/09/16 11:45:19;;;;;;;5.30;2.20;;;19.20;80.00;;;;;;4955782;28;20035;-80
2021/09/16 11:47:53;;;;;;;2.95;2.30;;;19.50;78.20;;;;;;4956268;28;20035;-77
2021/09/16 11:50:29;;;;;;;4.05;2.10;;;19.10;76.90;;;;;;4955623;28;20141;-78
2021/09/16 11:53:03;;;;;;;6.25;2.28;;;18.80;78.20;;;;;;4955208;28;20047;-79
2021/09/16 11:55:36;;;;;;;4.57;2.03;;;18.70;78.40;;;;;;4955297;28;20052;-79
2021/09/16 11:58:11;;;;;;;3.67;2.38;;;18.90;76.70;;;;;;4942840;28;20492;-77
2021/09/16 12:00:49;;;;;;;3.25;1.67;;;19.20;76.30;;;;;;4963930;28;20039;-78
2021/09/16 12:03:27;;;;;;;3.75;1.90;;;19.60;76.40;;;;;;4966138;28;20047;-79
2021/09/16 12:05:53;;;;;;;2.83;2.13;;;19.40;76.20;;;;;;4966156;28;20046;-78
2021/09/16 12:08:31;;;;;;;1.90;1.50;;;19.30;76.30;;;;;;4958783;28;20027;-78
2021/09/16 12:11:05;;;;;;;3.83;2.28;;;19.20;76.20;;;;;;4957173;28;20367;-78
2021/09/16 12:13:35;;;;;;;3.65;2.25;;;19.60;75.50;;;;;;4956977;28;20043;-79
2021/09/16 12:16:07;;;;;;;3.72;2.17;;;19.70;74.70;;;;;;4957034;28;20035;-78
2021/09/16 12:18:37;;;;;;;3.15;2.30;;;19.60;74.10;;;;;;4955454;28;20050;-78
2021/09/16 12:21:04;;;;;;;3.13;2.25;;;19.90;75.90;;;;;;4954774;28;20392;-77
2021/09/16 12:23:31;;;;;;;3.53;2.13;;;20.00;74.30;;;;;;4937597;28;20393;-78
2021/09/16 12:26:08;;;;;;;4.50;2.08;;;19.80;73.20;;;;;;4955035;28;20035;-79
2021/09/16 12:28:50;;;;;;;4.40;2.17;;;19.60;72.50;;;;;;4970041;28;20042;-78
2021/09/16 12:31:20;;;;;;;3.78;2.47;;;19.40;73.50;;;;;;4956485;28;20035;-79
2021/09/16 12:33:54;;;;;;;2.67;2.00;;;19.30;72.80;;;;;;4963870;28;20053;-79
2021/09/16 12:36:22;;;;;;;2.63;1.65;;;19.10;73.30;;;;;;4957388;28;20073;-80
2021/09/16 12:39:08;;;;;;;2.97;2.28;;;19.20;75.00;;;;;;4938110;28;20496;-79